sensor_id;sensor_type;location;lat;lon;timestamp;pressure;altitude;pressure_sealevel;temperature
74449;BMP280;62878;51.026;4.472;2022-12-20T00:01:18;-5971.47;;;16.26
74449;BMP280;62878;51.026;4.472;2022-12-20T00:03:45;-5969.72;;;16.16
74449;BMP280;62878;51.026;4.472;2022-12-20T00:06:12;-5969.19;;;16.13
74449;BMP280;62878;51.026;4.472;2022-12-20T00:08:39;-5971.31;;;16.25
74449;BMP280;62878;51.026;4.472;2022-12-20T00:11:07;-5970.47;;;16.20
74449;BMP280;62878;51.026;4.472;2022-12-20T00:13:34;-5970.38;;;16.20
74449;BMP280;62878;51.026;4.472;2022-12-20T00:16:14;-5967.59;;;16.03
74449;BMP280;62878;51.026;4.472;2022-12-20T00:18:40;-5970.28;;;16.19
74449;BMP280;62878;51.026;4.472;2022-12-20T00:21:07;-5968.03;;;16.06
74449;BMP280;62878;51.026;4.472;2022-12-20T00:23:33;-5970.81;;;16.22
74449;BMP280;62878;51.026;4.472;2022-12-20T00:26:05;-5966.59;;;15.97
74449;BMP280;62878;51.026;4.472;2022-12-20T00:28:32;-5964.06;;;15.82
74449;BMP280;62878;51.026;4.472;2022-12-20T00:30:58;-5969.53;;;16.15
74449;BMP280;62878;51.026;4.472;2022-12-20T00:33:23;-5969.63;;;16.15
74449;BMP280;62878;51.026;4.472;2022-12-20T00:35:49;-5970.63;;;16.21
74449;BMP280;62878;51.026;4.472;2022-12-20T00:38:14;-5966.59;;;15.97
74449;BMP280;62878;51.026;4.472;2022-12-20T00:40:39;-5970.28;;;16.19
74449;BMP280;62878;51.026;4.472;2022-12-20T00:43:05;-5969.44;;;16.14
74449;BMP280;62878;51.026;4.472;2022-12-20T00:45:30;-5967.59;;;16.03
74449;BMP280;62878;51.026;4.472;2022-12-20T00:47:56;-5970.47;;;16.20
74449;BMP280;62878;51.026;4.472;2022-12-20T00:50:21;-5954.81;;;15.26
74449;BMP280;62878;51.026;4.472;2022-12-20T00:52:46;-5970.13;;;16.18
74449;BMP280;62878;51.026;4.472;2022-12-20T00:55:11;-5962.88;;;15.75
74449;BMP280;62878;51.026;4.472;2022-12-20T00:57:37;-5970.38;;;16.20
74449;BMP280;62878;51.026;4.472;2022-12-20T01:00:03;-5971.81;;;16.28
74449;BMP280;62878;51.026;4.472;2022-12-20T01:02:28;-5954.31;;;15.23
74449;BMP280;62878;51.026;4.472;2022-12-20T01:04:54;-5956.22;;;15.35
74449;BMP280;62878;51.026;4.472;2022-12-20T01:07:19;-5970.13;;;16.18
74449;BMP280;62878;51.026;4.472;2022-12-20T01:09:47;-5969.72;;;16.16
74449;BMP280;62878;51.026;4.472;2022-12-20T01:12:12;-5969.63;;;16.15
74449;BMP280;62878;51.026;4.472;2022-12-20T01:14:38;-5965.16;;;15.89
74449;BMP280;62878;51.026;4.472;2022-12-20T01:17:03;-5965.59;;;15.91
74449;BMP280;62878;51.026;4.472;2022-12-20T01:19:28;-5970.28;;;16.19
74449;BMP280;62878;51.026;4.472;2022-12-20T01:21:54;-5966.09;;;15.94
74449;BMP280;62878;51.026;4.472;2022-12-20T01:24:19;-5970.03;;;16.18
74449;BMP280;62878;51.026;4.472;2022-12-20T01:26:46;-5970.28;;;16.19
74449;BMP280;62878;51.026;4.472;2022-12-20T01:29:11;-5968.19;;;16.07
74449;BMP280;62878;51.026;4.472;2022-12-20T01:31:38;-5969.03;;;16.12
74449;BMP280;62878;51.026;4.472;2022-12-20T01:34:03;-5971.97;;;16.29
74449;BMP280;62878;51.026;4.472;2022-12-20T01:36:31;-5970.88;;;16.23
74449;BMP280;62878;51.026;4.472;2022-12-20T01:39:10;-5970.13;;;16.18
74449;BMP280;62878;51.026;4.472;2022-12-20T01:41:36;-5970.38;;;16.20
74449;BMP280;62878;51.026;4.472;2022-12-20T01:44:04;-5968.09;;;16.06
74449;BMP280;62878;51.026;4.472;2022-12-20T01:46:32;-5955.41;;;15.30
74449;BMP280;62878;51.026;4.472;2022-12-20T01:49:13;-5967.59;;;16.03
74449;BMP280;62878;51.026;4.472;2022-12-20T01:51:46;-5971.81;;;16.28
74449;BMP280;62878;51.026;4.472;2022-12-20T01:54:16;-5968.94;;;16.11
74449;BMP280;62878;51.026;4.472;2022-12-20T01:56:47;-5969.44;;;16.14
74449;BMP280;62878;51.026;4.472;2022-12-20T01:59:14;-5966.00;;;15.94
74449;BMP280;62878;51.026;4.472;2022-12-20T02:01:42;-5969.97;;;16.17
74449;BMP280;62878;51.026;4.472;2022-12-20T02:04:08;-5968.94;;;16.11
74449;BMP280;62878;51.026;4.472;2022-12-20T02:06:34;-5969.78;;;16.16
74449;BMP280;62878;51.026;4.472;2022-12-20T02:09:01;-5965.00;;;15.88
74449;BMP280;62878;51.026;4.472;2022-12-20T02:12:00;-5970.47;;;16.20
74449;BMP280;62878;51.026;4.472;2022-12-20T02:20:27;-5970.56;;;16.21
74449;BMP280;62878;51.026;4.472;2022-12-20T02:30:56;-5967.78;;;16.04
74449;BMP280;62878;51.026;4.472;2022-12-20T02:33:26;-5967.25;;;16.01
74449;BMP280;62878;51.026;4.472;2022-12-20T02:35:52;-5967.19;;;16.01
74449;BMP280;62878;51.026;4.472;2022-12-20T02:38:36;-5965.25;;;15.89
74449;BMP280;62878;51.026;4.472;2022-12-20T02:41:11;-5968.53;;;16.09
74449;BMP280;62878;51.026;4.472;2022-12-20T02:43:41;-5968.88;;;16.11
74449;BMP280;62878;51.026;4.472;2022-12-20T02:46:27;-5966.16;;;15.95
74449;BMP280;62878;51.026;4.472;2022-12-20T02:48:55;-5968.63;;;16.09
74449;BMP280;62878;51.026;4.472;2022-12-20T02:51:25;-5969.13;;;16.12
74449;BMP280;62878;51.026;4.472;2022-12-20T02:53:52;-5968.44;;;16.08
74449;BMP280;62878;51.026;4.472;2022-12-20T02:56:23;-5968.94;;;16.11
74449;BMP280;62878;51.026;4.472;2022-12-20T02:59:02;-5968.63;;;16.09
74449;BMP280;62878;51.026;4.472;2022-12-20T03:01:33;-5967.25;;;16.01
74449;BMP280;62878;51.026;4.472;2022-12-20T03:04:00;-5963.22;;;15.77
74449;BMP280;62878;51.026;4.472;2022-12-20T03:06:25;-5967.78;;;16.04
74449;BMP280;62878;51.026;4.472;2022-12-20T03:08:51;-5959.00;;;15.52
74449;BMP280;62878;51.026;4.472;2022-12-20T03:11:16;-5967.59;;;16.03
74449;BMP280;62878;51.026;4.472;2022-12-20T03:13:42;-5961.72;;;15.68
74449;BMP280;62878;51.026;4.472;2022-12-20T03:16:08;-5967.53;;;16.03
74449;BMP280;62878;51.026;4.472;2022-12-20T03:18:34;-5967.59;;;16.03
74449;BMP280;62878;51.026;4.472;2022-12-20T03:21:00;-5958.16;;;15.47
74449;BMP280;62878;51.026;4.472;2022-12-20T03:23:25;-5967.53;;;16.03
74449;BMP280;62878;51.026;4.472;2022-12-20T03:25:50;-5967.00;;;16.00
74449;BMP280;62878;51.026;4.472;2022-12-20T03:28:16;-5959.28;;;15.53
74449;BMP280;62878;51.026;4.472;2022-12-20T03:30:41;-5967.25;;;16.01
74449;BMP280;62878;51.026;4.472;2022-12-20T03:33:06;-5967.09;;;16.00
74449;BMP280;62878;51.026;4.472;2022-12-20T03:35:32;-5965.75;;;15.92
74449;BMP280;62878;51.026;4.472;2022-12-20T03:37:58;-5967.19;;;16.01
74449;BMP280;62878;51.026;4.472;2022-12-20T03:40:24;-5966.59;;;15.97
74449;BMP280;62878;51.026;4.472;2022-12-20T03:42:49;-5961.72;;;15.68
74449;BMP280;62878;51.026;4.472;2022-12-20T03:45:14;-5966.75;;;15.98
74449;BMP280;62878;51.026;4.472;2022-12-20T03:47:40;-5966.94;;;15.99
74449;BMP280;62878;51.026;4.472;2022-12-20T03:50:06;-5966.00;;;15.94
74449;BMP280;62878;51.026;4.472;2022-12-20T03:52:32;-5966.59;;;15.97
74449;BMP280;62878;51.026;4.472;2022-12-20T03:54:57;-5965.66;;;15.92
74449;BMP280;62878;51.026;4.472;2022-12-20T03:57:23;-5967.25;;;16.01
74449;BMP280;62878;51.026;4.472;2022-12-20T03:59:48;-5967.25;;;16.01
74449;BMP280;62878;51.026;4.472;2022-12-20T04:02:14;-5966.69;;;15.98
74449;BMP280;62878;51.026;4.472;2022-12-20T04:04:39;-5965.59;;;15.91
74449;BMP280;62878;51.026;4.472;2022-12-20T04:07:04;-5960.63;;;15.61
74449;BMP280;62878;51.026;4.472;2022-12-20T04:09:29;-5962.38;;;15.72
74449;BMP280;62878;51.026;4.472;2022-12-20T04:11:55;-5965.16;;;15.89
74449;BMP280;62878;51.026;4.472;2022-12-20T04:14:20;-5967.09;;;16.00
74449;BMP280;62878;51.026;4.472;2022-12-20T04:16:45;-5966.94;;;15.99
74449;BMP280;62878;51.026;4.472;2022-12-20T04:19:11;-5958.84;;;15.51
74449;BMP280;62878;51.026;4.472;2022-12-20T04:21:38;-5963.66;;;15.79
74449;BMP280;62878;51.026;4.472;2022-12-20T04:24:04;-5966.09;;;15.94
74449;BMP280;62878;51.026;4.472;2022-12-20T04:26:30;-5967.00;;;16.00
74449;BMP280;62878;51.026;4.472;2022-12-20T04:28:55;-5967.25;;;16.01
74449;BMP280;62878;51.026;4.472;2022-12-20T04:31:20;-5966.75;;;15.98
74449;BMP280;62878;51.026;4.472;2022-12-20T04:33:46;-5966.84;;;15.99
74449;BMP280;62878;51.026;4.472;2022-12-20T04:36:13;-5961.53;;;15.67
74449;BMP280;62878;51.026;4.472;2022-12-20T04:38:38;-5966.16;;;15.95
74449;BMP280;62878;51.026;4.472;2022-12-20T04:41:04;-5966.50;;;15.97
74449;BMP280;62878;51.026;4.472;2022-12-20T04:43:29;-5965.25;;;15.89
74449;BMP280;62878;51.026;4.472;2022-12-20T04:45:55;-5965.06;;;15.88
74449;BMP280;62878;51.026;4.472;2022-12-20T04:48:21;-5965.25;;;15.89
74449;BMP280;62878;51.026;4.472;2022-12-20T04:50:49;-5966.25;;;15.95
74449;BMP280;62878;51.026;4.472;2022-12-20T04:53:15;-5965.25;;;15.89
74449;BMP280;62878;51.026;4.472;2022-12-20T04:55:59;-5964.75;;;15.86
74449;BMP280;62878;51.026;4.472;2022-12-20T04:58:25;-5965.41;;;15.90
74449;BMP280;62878;51.026;4.472;2022-12-20T05:00:51;-5963.41;;;15.78
74449;BMP280;62878;51.026;4.472;2022-12-20T05:03:20;-5966.09;;;15.94
74449;BMP280;62878;51.026;4.472;2022-12-20T05:05:46;-5964.75;;;15.86
74449;BMP280;62878;51.026;4.472;2022-12-20T05:08:12;-5964.81;;;15.87
74449;BMP280;62878;51.026;4.472;2022-12-20T05:10:38;-5963.13;;;15.76
74449;BMP280;62878;51.026;4.472;2022-12-20T05:13:03;-5965.91;;;15.93
74449;BMP280;62878;51.026;4.472;2022-12-20T05:15:29;-5963.47;;;15.78
74449;BMP280;62878;51.026;4.472;2022-12-20T05:17:54;-5963.41;;;15.78
74449;BMP280;62878;51.026;4.472;2022-12-20T05:20:28;-5965.06;;;15.88
74449;BMP280;62878;51.026;4.472;2022-12-20T05:22:54;-5963.72;;;15.80
74449;BMP280;62878;51.026;4.472;2022-12-20T05:25:43;-5965.66;;;15.92
74449;BMP280;62878;51.026;4.472;2022-12-20T05:28:28;-5965.75;;;15.92
74449;BMP280;62878;51.026;4.472;2022-12-20T05:30:54;-5965.06;;;15.88
74449;BMP280;62878;51.026;4.472;2022-12-20T05:33:19;-5964.50;;;15.84
74449;BMP280;62878;51.026;4.472;2022-12-20T05:35:45;-5965.25;;;15.89
74449;BMP280;62878;51.026;4.472;2022-12-20T05:38:10;-5959.19;;;15.53
74449;BMP280;62878;51.026;4.472;2022-12-20T05:40:36;-5965.84;;;15.93
74449;BMP280;62878;51.026;4.472;2022-12-20T05:43:01;-5965.00;;;15.88
74449;BMP280;62878;51.026;4.472;2022-12-20T05:45:27;-5965.25;;;15.89
74449;BMP280;62878;51.026;4.472;2022-12-20T05:47:52;-5965.25;;;15.89
74449;BMP280;62878;51.026;4.472;2022-12-20T05:50:17;-5964.41;;;15.84
74449;BMP280;62878;51.026;4.472;2022-12-20T05:52:43;-5963.06;;;15.76
74449;BMP280;62878;51.026;4.472;2022-12-20T05:55:08;-5961.28;;;15.65
74449;BMP280;62878;51.026;4.472;2022-12-20T05:57:34;-5958.00;;;15.46
74449;BMP280;62878;51.026;4.472;2022-12-20T06:00:00;-5965.00;;;15.88
74449;BMP280;62878;51.026;4.472;2022-12-20T06:02:26;-5958.59;;;15.49
74449;BMP280;62878;51.026;4.472;2022-12-20T06:04:51;-5965.06;;;15.88
74449;BMP280;62878;51.026;4.472;2022-12-20T06:07:16;-5964.06;;;15.82
74449;BMP280;62878;51.026;4.472;2022-12-20T06:09:43;-5963.97;;;15.81
74449;BMP280;62878;51.026;4.472;2022-12-20T06:12:09;-5963.91;;;15.81
74449;BMP280;62878;51.026;4.472;2022-12-20T06:14:34;-5959.28;;;15.53
74449;BMP280;62878;51.026;4.472;2022-12-20T06:17:00;-5963.72;;;15.80
74449;BMP280;62878;51.026;4.472;2022-12-20T06:19:25;-5965.75;;;15.92
74449;BMP280;62878;51.026;4.472;2022-12-20T06:21:50;-5963.97;;;15.81
74449;BMP280;62878;51.026;4.472;2022-12-20T06:24:16;-5964.56;;;15.85
74449;BMP280;62878;51.026;4.472;2022-12-20T06:26:41;-5964.91;;;15.87
74449;BMP280;62878;51.026;4.472;2022-12-20T06:29:06;-5964.06;;;15.82
74449;BMP280;62878;51.026;4.472;2022-12-20T06:31:34;-5964.16;;;15.82
74449;BMP280;62878;51.026;4.472;2022-12-20T06:34:00;-5960.88;;;15.63
74449;BMP280;62878;51.026;4.472;2022-12-20T06:36:26;-5962.88;;;15.75
74449;BMP280;62878;51.026;4.472;2022-12-20T06:38:51;-5962.56;;;15.73
74449;BMP280;62878;51.026;4.472;2022-12-20T06:41:16;-5959.53;;;15.55
74449;BMP280;62878;51.026;4.472;2022-12-20T06:43:42;-5962.56;;;15.73
74449;BMP280;62878;51.026;4.472;2022-12-20T06:46:07;-5960.88;;;15.63
74449;BMP280;62878;51.026;4.472;2022-12-20T06:48:33;-5963.81;;;15.80
74449;BMP280;62878;51.026;4.472;2022-12-20T06:50:58;-5964.41;;;15.84
74449;BMP280;62878;51.026;4.472;2022-12-20T06:53:23;-5964.75;;;15.86
74449;BMP280;62878;51.026;4.472;2022-12-20T06:55:50;-5964.41;;;15.84
74449;BMP280;62878;51.026;4.472;2022-12-20T06:58:18;-5964.50;;;15.84
74449;BMP280;62878;51.026;4.472;2022-12-20T07:00:46;-5959.28;;;15.53
74449;BMP280;62878;51.026;4.472;2022-12-20T07:03:12;-5963.91;;;15.81
74449;BMP280;62878;51.026;4.472;2022-12-20T07:05:37;-5964.25;;;15.83
74449;BMP280;62878;51.026;4.472;2022-12-20T07:08:05;-5963.97;;;15.81
74449;BMP280;62878;51.026;4.472;2022-12-20T07:10:32;-5963.91;;;15.81
74449;BMP280;62878;51.026;4.472;2022-12-20T07:12:58;-5964.25;;;15.83
74449;BMP280;62878;51.026;4.472;2022-12-20T07:15:24;-5963.47;;;15.78
74449;BMP280;62878;51.026;4.472;2022-12-20T07:17:49;-5962.81;;;15.74
74449;BMP280;62878;51.026;4.472;2022-12-20T07:20:16;-5964.25;;;15.83
74449;BMP280;62878;51.026;4.472;2022-12-20T07:22:41;-5959.34;;;15.54
74449;BMP280;62878;51.026;4.472;2022-12-20T07:25:07;-5959.53;;;15.55
74449;BMP280;62878;51.026;4.472;2022-12-20T07:27:32;-5963.22;;;15.77
74449;BMP280;62878;51.026;4.472;2022-12-20T07:29:58;-5959.84;;;15.57
74449;BMP280;62878;51.026;4.472;2022-12-20T07:32:23;-5962.88;;;15.75
74449;BMP280;62878;51.026;4.472;2022-12-20T07:34:48;-5962.03;;;15.70
74449;BMP280;62878;51.026;4.472;2022-12-20T07:37:13;-5956.66;;;15.38
74449;BMP280;62878;51.026;4.472;2022-12-20T07:39:39;-5962.47;;;15.72
74449;BMP280;62878;51.026;4.472;2022-12-20T07:42:06;-5963.41;;;15.78
74449;BMP280;62878;51.026;4.472;2022-12-20T07:44:31;-5963.41;;;15.78
74449;BMP280;62878;51.026;4.472;2022-12-20T07:46:57;-5957.50;;;15.43
74449;BMP280;62878;51.026;4.472;2022-12-20T07:49:22;-5960.69;;;15.62
74449;BMP280;62878;51.026;4.472;2022-12-20T07:51:50;-5963.41;;;15.78
74449;BMP280;62878;51.026;4.472;2022-12-20T07:54:20;-5964.31;;;15.83
74449;BMP280;62878;51.026;4.472;2022-12-20T07:56:51;-5964.56;;;15.85
74449;BMP280;62878;51.026;4.472;2022-12-20T07:59:20;-5958.00;;;15.46
74449;BMP280;62878;51.026;4.472;2022-12-20T08:01:47;-5961.72;;;15.68
74449;BMP280;62878;51.026;4.472;2022-12-20T08:04:18;-5960.78;;;15.62
74449;BMP280;62878;51.026;4.472;2022-12-20T08:06:47;-5962.56;;;15.73
74449;BMP280;62878;51.026;4.472;2022-12-20T08:09:14;-5960.69;;;15.62
74449;BMP280;62878;51.026;4.472;2022-12-20T08:11:42;-5958.94;;;15.51
74449;BMP280;62878;51.026;4.472;2022-12-20T08:14:08;-5960.53;;;15.61
74449;BMP280;62878;51.026;4.472;2022-12-20T08:16:37;-5963.47;;;15.78
74449;BMP280;62878;51.026;4.472;2022-12-20T08:19:03;-5962.22;;;15.71
74449;BMP280;62878;51.026;4.472;2022-12-20T08:21:29;-5961.47;;;15.66
74449;BMP280;62878;51.026;4.472;2022-12-20T08:23:55;-5961.53;;;15.67
74449;BMP280;62878;51.026;4.472;2022-12-20T08:26:20;-5964.75;;;15.86
74449;BMP280;62878;51.026;4.472;2022-12-20T08:28:46;-5965.25;;;15.89
74449;BMP280;62878;51.026;4.472;2022-12-20T08:31:11;-5960.53;;;15.61
74449;BMP280;62878;51.026;4.472;2022-12-20T08:33:37;-5963.72;;;15.80
74449;BMP280;62878;51.026;4.472;2022-12-20T08:36:06;-5960.78;;;15.62
74449;BMP280;62878;51.026;4.472;2022-12-20T08:38:34;-5964.25;;;15.83
74449;BMP280;62878;51.026;4.472;2022-12-20T08:41:08;-5964.50;;;15.84
74449;BMP280;62878;51.026;4.472;2022-12-20T08:43:35;-5967.09;;;16.00
74449;BMP280;62878;51.026;4.472;2022-12-20T08:46:01;-5968.19;;;16.07
74449;BMP280;62878;51.026;4.472;2022-12-20T08:48:27;-5968.28;;;16.07
74449;BMP280;62878;51.026;4.472;2022-12-20T08:50:56;-5963.13;;;15.76
74449;BMP280;62878;51.026;4.472;2022-12-20T08:53:23;-5967.25;;;16.01
74449;BMP280;62878;51.026;4.472;2022-12-20T08:55:48;-5966.25;;;15.95
74449;BMP280;62878;51.026;4.472;2022-12-20T08:58:13;-5967.94;;;16.05
74449;BMP280;62878;51.026;4.472;2022-12-20T09:00:39;-5961.97;;;15.69
74449;BMP280;62878;51.026;4.472;2022-12-20T09:03:05;-5968.78;;;16.10
74449;BMP280;62878;51.026;4.472;2022-12-20T09:05:31;-5969.72;;;16.16
74449;BMP280;62878;51.026;4.472;2022-12-20T09:07:57;-5969.13;;;16.12
74449;BMP280;62878;51.026;4.472;2022-12-20T09:10:22;-5970.22;;;16.19
74449;BMP280;62878;51.026;4.472;2022-12-20T09:12:47;-5971.63;;;16.27
74449;BMP280;62878;51.026;4.472;2022-12-20T09:15:13;-5968.34;;;16.08
74449;BMP280;62878;51.026;4.472;2022-12-20T09:17:39;-5969.28;;;16.13
74449;BMP280;62878;51.026;4.472;2022-12-20T09:20:05;-5971.13;;;16.24
74449;BMP280;62878;51.026;4.472;2022-12-20T09:22:30;-5970.97;;;16.23
74449;BMP280;62878;51.026;4.472;2022-12-20T09:24:56;-5967.78;;;16.04
74449;BMP280;62878;51.026;4.472;2022-12-20T09:27:21;-5971.22;;;16.25
74449;BMP280;62878;51.026;4.472;2022-12-20T09:29:46;-5970.47;;;16.20
74449;BMP280;62878;51.026;4.472;2022-12-20T09:32:11;-5971.97;;;16.29
74449;BMP280;62878;51.026;4.472;2022-12-20T09:34:37;-5971.38;;;16.26
74449;BMP280;62878;51.026;4.472;2022-12-20T09:37:03;-5974.50;;;16.45
74449;BMP280;62878;51.026;4.472;2022-12-20T09:39:29;-5973.50;;;16.39
74449;BMP280;62878;51.026;4.472;2022-12-20T09:41:54;-5971.22;;;16.25
74449;BMP280;62878;51.026;4.472;2022-12-20T09:46:54;-5974.66;;;16.46
74449;BMP280;62878;51.026;4.472;2022-12-20T09:49:21;-5971.31;;;16.25
74449;BMP280;62878;51.026;4.472;2022-12-20T09:52:00;-5974.50;;;16.45
74449;BMP280;62878;51.026;4.472;2022-12-20T09:54:35;-5975.34;;;16.50
74449;BMP280;62878;51.026;4.472;2022-12-20T09:59:33;-5977.44;;;16.62
74449;BMP280;62878;51.026;4.472;2022-12-20T10:01:59;-5975.09;;;16.48
74449;BMP280;62878;51.026;4.472;2022-12-20T10:04:26;-5973.66;;;16.40
74449;BMP280;62878;51.026;4.472;2022-12-20T10:15:21;-5974.16;;;16.43
74449;BMP280;62878;51.026;4.472;2022-12-20T10:25:50;-5968.44;;;16.08
74449;BMP280;62878;51.026;4.472;2022-12-20T10:28:16;-5976.19;;;16.55
74449;BMP280;62878;51.026;4.472;2022-12-20T10:30:42;-5975.84;;;16.53
74449;BMP280;62878;51.026;4.472;2022-12-20T10:33:22;-5976.78;;;16.58
74449;BMP280;62878;51.026;4.472;2022-12-20T10:35:48;-5974.34;;;16.44
74449;BMP280;62878;51.026;4.472;2022-12-20T10:38:14;-5975.69;;;16.52
74449;BMP280;62878;51.026;4.472;2022-12-20T10:40:47;-5975.69;;;16.52
74449;BMP280;62878;51.026;4.472;2022-12-20T10:43:22;-5973.84;;;16.41
74449;BMP280;62878;51.026;4.472;2022-12-20T10:46:03;-5975.00;;;16.48
74449;BMP280;62878;51.026;4.472;2022-12-20T10:48:35;-5971.81;;;16.28
74449;BMP280;62878;51.026;4.472;2022-12-20T10:51:13;-5969.88;;;16.17
74449;BMP280;62878;51.026;4.472;2022-12-20T10:54:02;-5978.38;;;16.68
74449;BMP280;62878;51.026;4.472;2022-12-20T10:56:29;-5976.09;;;16.54
74449;BMP280;62878;51.026;4.472;2022-12-20T10:59:00;-5978.22;;;16.67
74449;BMP280;62878;51.026;4.472;2022-12-20T11:01:34;-5978.63;;;16.69
74449;BMP280;62878;51.026;4.472;2022-12-20T11:04:02;-5976.94;;;16.59
74449;BMP280;62878;51.026;4.472;2022-12-20T11:09:32;-5976.94;;;16.59
74449;BMP280;62878;51.026;4.472;2022-12-20T11:12:03;-5979.06;;;16.72
74449;BMP280;62878;51.026;4.472;2022-12-20T11:14:30;-5978.88;;;16.71
74449;BMP280;62878;51.026;4.472;2022-12-20T11:16:57;-5979.88;;;16.77
74449;BMP280;62878;51.026;4.472;2022-12-20T11:27:31;-5970.56;;;16.21
74449;BMP280;62878;51.026;4.472;2022-12-20T11:30:36;-5978.53;;;16.69
74449;BMP280;62878;51.026;4.472;2022-12-20T11:33:04;-5977.28;;;16.61
74449;BMP280;62878;51.026;4.472;2022-12-20T11:35:45;-5979.06;;;16.72
74449;BMP280;62878;51.026;4.472;2022-12-20T11:38:29;-5976.69;;;16.58
74449;BMP280;62878;51.026;4.472;2022-12-20T11:41:18;-5977.78;;;16.64
74449;BMP280;62878;51.026;4.472;2022-12-20T11:46:39;-5979.06;;;16.72
74449;BMP280;62878;51.026;4.472;2022-12-20T11:52:34;-5976.78;;;16.58
74449;BMP280;62878;51.026;4.472;2022-12-20T12:00:32;-5976.19;;;16.55
74449;BMP280;62878;51.026;4.472;2022-12-20T12:03:04;-5975.84;;;16.53
74449;BMP280;62878;51.026;4.472;2022-12-20T12:05:43;-5977.44;;;16.62
74449;BMP280;62878;51.026;4.472;2022-12-20T12:08:14;-5980.97;;;16.83
74449;BMP280;62878;51.026;4.472;2022-12-20T12:10:49;-5978.53;;;16.69
74449;BMP280;62878;51.026;4.472;2022-12-20T12:13:27;-5978.38;;;16.68
74449;BMP280;62878;51.026;4.472;2022-12-20T12:15:57;-5977.03;;;16.60
74449;BMP280;62878;51.026;4.472;2022-12-20T12:18:28;-5976.78;;;16.58
74449;BMP280;62878;51.026;4.472;2022-12-20T12:21:15;-5977.19;;;16.61
74449;BMP280;62878;51.026;4.472;2022-12-20T12:26:24;-5978.22;;;16.67
74449;BMP280;62878;51.026;4.472;2022-12-20T12:29:03;-5978.47;;;16.68
74449;BMP280;62878;51.026;4.472;2022-12-20T12:45:31;-5972.66;;;16.33
74449;BMP280;62878;51.026;4.472;2022-12-20T12:48:06;-5976.78;;;16.58
74449;BMP280;62878;51.026;4.472;2022-12-20T12:50:46;-5975.59;;;16.51
74449;BMP280;62878;51.026;4.472;2022-12-20T12:53:19;-5976.09;;;16.54
74449;BMP280;62878;51.026;4.472;2022-12-20T12:55:50;-5974.75;;;16.46
74449;BMP280;62878;51.026;4.472;2022-12-20T13:00:53;-5957.66;;;15.44
74449;BMP280;62878;51.026;4.472;2022-12-20T13:03:40;-5976.69;;;16.58
74449;BMP280;62878;51.026;4.472;2022-12-20T13:11:33;-5974.25;;;16.43
74449;BMP280;62878;51.026;4.472;2022-12-20T13:22:41;-5972.81;;;16.34
74449;BMP280;62878;51.026;4.472;2022-12-20T13:30:37;-5959.00;;;15.52
74449;BMP280;62878;51.026;4.472;2022-12-20T13:32:57;-5966.34;;;15.96
74449;BMP280;62878;51.026;4.472;2022-12-20T13:40:39;-5968.94;;;16.11
74449;BMP280;62878;51.026;4.472;2022-12-20T13:46:13;-5971.31;;;16.25
74449;BMP280;62878;51.026;4.472;2022-12-20T13:51:15;-5970.13;;;16.18
74449;BMP280;62878;51.026;4.472;2022-12-20T13:53:57;-5970.56;;;16.21
74449;BMP280;62878;51.026;4.472;2022-12-20T13:58:53;-5971.47;;;16.26
74449;BMP280;62878;51.026;4.472;2022-12-20T14:01:21;-5969.13;;;16.12
74449;BMP280;62878;51.026;4.472;2022-12-20T14:03:47;-5971.31;;;16.25
74449;BMP280;62878;51.026;4.472;2022-12-20T14:06:13;-5970.28;;;16.19
74449;BMP280;62878;51.026;4.472;2022-12-20T14:08:46;-5970.97;;;16.23
74449;BMP280;62878;51.026;4.472;2022-12-20T14:11:25;-5973.50;;;16.39
74449;BMP280;62878;51.026;4.472;2022-12-20T14:13:53;-5972.16;;;16.30
74449;BMP280;62878;51.026;4.472;2022-12-20T14:16:20;-5973.06;;;16.36
74449;BMP280;62878;51.026;4.472;2022-12-20T14:19:02;-5973.41;;;16.38
74449;BMP280;62878;51.026;4.472;2022-12-20T14:21:27;-5969.78;;;16.16
74449;BMP280;62878;51.026;4.472;2022-12-20T14:23:55;-5975.19;;;16.49
74449;BMP280;62878;51.026;4.472;2022-12-20T14:26:24;-5976.00;;;16.54
74449;BMP280;62878;51.026;4.472;2022-12-20T14:28:52;-5974.50;;;16.45
74449;BMP280;62878;51.026;4.472;2022-12-20T14:36:36;-5974.84;;;16.47
74449;BMP280;62878;51.026;4.472;2022-12-20T14:41:45;-5975.19;;;16.49
74449;BMP280;62878;51.026;4.472;2022-12-20T14:44:21;-5977.69;;;16.64
74449;BMP280;62878;51.026;4.472;2022-12-20T14:46:56;-5978.03;;;16.66
74449;BMP280;62878;51.026;4.472;2022-12-20T14:49:31;-5978.53;;;16.69
74449;BMP280;62878;51.026;4.472;2022-12-20T14:52:13;-5979.72;;;16.76
74449;BMP280;62878;51.026;4.472;2022-12-20T14:55:29;-5979.88;;;16.77
74449;BMP280;62878;51.026;4.472;2022-12-20T14:57:38;-5980.81;;;16.82
74449;BMP280;62878;51.026;4.472;2022-12-20T15:00:19;-5981.50;;;16.86
74449;BMP280;62878;51.026;4.472;2022-12-20T15:03:10;-5979.72;;;16.76
74449;BMP280;62878;51.026;4.472;2022-12-20T15:05:44;-5979.31;;;16.73
74449;BMP280;62878;51.026;4.472;2022-12-20T15:08:24;-5974.66;;;16.46
74449;BMP280;62878;51.026;4.472;2022-12-20T15:13:20;-5974.50;;;16.45
74449;BMP280;62878;51.026;4.472;2022-12-20T15:15:45;-5976.09;;;16.54
74449;BMP280;62878;51.026;4.472;2022-12-20T15:18:16;-5974.59;;;16.45
74449;BMP280;62878;51.026;4.472;2022-12-20T15:20:43;-5975.34;;;16.50
74449;BMP280;62878;51.026;4.472;2022-12-20T15:23:17;-5965.06;;;15.88
74449;BMP280;62878;51.026;4.472;2022-12-20T15:25:43;-5961.63;;;15.67
74449;BMP280;62878;51.026;4.472;2022-12-20T15:28:21;-5953.63;;;15.19
74449;BMP280;62878;51.026;4.472;2022-12-20T15:30:48;-5956.50;;;15.37
74449;BMP280;62878;51.026;4.472;2022-12-20T15:33:20;-5957.84;;;15.45
74449;BMP280;62878;51.026;4.472;2022-12-20T15:35:46;-5957.25;;;15.41
74449;BMP280;62878;51.026;4.472;2022-12-20T15:38:25;-5964.75;;;15.86
74449;BMP280;62878;51.026;4.472;2022-12-20T15:40:53;-5963.41;;;15.78
74449;BMP280;62878;51.026;4.472;2022-12-20T15:43:20;-5969.63;;;16.15
74449;BMP280;62878;51.026;4.472;2022-12-20T15:45:49;-5971.06;;;16.24
74449;BMP280;62878;51.026;4.472;2022-12-20T15:48:18;-5971.13;;;16.24
74449;BMP280;62878;51.026;4.472;2022-12-20T15:50:48;-5973.16;;;16.37
74449;BMP280;62878;51.026;4.472;2022-12-20T15:53:15;-5974.34;;;16.44
74449;BMP280;62878;51.026;4.472;2022-12-20T15:55:42;-5972.22;;;16.31
74449;BMP280;62878;51.026;4.472;2022-12-20T15:58:08;-5973.16;;;16.37
74449;BMP280;62878;51.026;4.472;2022-12-20T16:00:37;-5966.25;;;15.95
74449;BMP280;62878;51.026;4.472;2022-12-20T16:03:03;-5956.66;;;15.38
74449;BMP280;62878;51.026;4.472;2022-12-20T16:05:28;-5965.91;;;15.93
74449;BMP280;62878;51.026;4.472;2022-12-20T16:07:54;-5966.94;;;15.99
74449;BMP280;62878;51.026;4.472;2022-12-20T16:10:19;-5970.81;;;16.22
74449;BMP280;62878;51.026;4.472;2022-12-20T16:12:44;-5971.63;;;16.27
74449;BMP280;62878;51.026;4.472;2022-12-20T16:15:19;-5968.44;;;16.08
74449;BMP280;62878;51.026;4.472;2022-12-20T16:17:44;-5973.50;;;16.39